Time;durP1;ratioP1;P1;durP2;ratioP2;P2;SDS_P1;SDS_P2;PMS_P1;PMS_P2;Temp;Humidity;BMP_temperature;BMP_pressure;BME280_temperature;BME280_humidity;BME280_pressure;Samples;Min_cycle;Max_cycle;Signal;HPM_P1;HPM_P2
2023/06/07 00:00:23;;;;;;;;;;;;;;;;;;6099912;23;19925;-79
2023/06/07 00:02:53;;;;;;;;;;;;;;;;;;6136835;23;20342;-78
2023/06/07 00:05:21;;;;;;;;;;;;;;;;;;6099513;23;19925;-79
2023/06/07 00:07:51;;;;;;;;;;;;;;;;;;6136006;23;20261;-78
2023/06/07 00:10:23;;;;;;;;;;;;;;;;;;6122712;23;19925;-79
2023/06/07 00:12:50;;;;;;;;;;;;;;;;;;6075526;23;19925;-78
2023/06/07 00:15:20;;;;;;;;;;;;;;;;;;6109209;23;19928;-78
2023/06/07 00:17:49;;;;;;;;;;;;;;;;;;6051257;23;19920;-78
2023/06/07 00:20:16;;;;;;;;;;;;;;;;;;6099020;23;19921;-78
2023/06/07 00:22:47;;;;;;;;;;;;;;;;;;6100057;23;20052;-78
2023/06/07 00:25:16;;;;;;;;;;;;;;;;;;6109657;23;19925;-78
2023/06/07 00:27:43;;;;;;;;;;;;;;;;;;6075477;23;19928;-78
2023/06/07 00:30:11;;;;;;;;;;;;;;;;;;6074713;23;19928;-79
2023/06/07 00:32:38;;;;;;;;;;;;;;;;;;6076182;23;19921;-79
2023/06/07 00:35:08;;;;;;;;;;;;;;;;;;6075642;23;19928;-79
2023/06/07 00:37:40;;;;;;;;;;;;;;;;;;6075256;23;19925;-79
2023/06/07 00:40:09;;;;;;;;;;;;;;;;;;6098647;23;19921;-79
2023/06/07 00:42:36;;;;;;;;;;;;;;;;;;6074913;23;20361;-79
2023/06/07 00:45:06;;;;;;;;;;;;;;;;;;6075092;23;19921;-79
2023/06/07 00:47:37;;;;;;;;;;;;;;;;;;6075772;23;19921;-79
2023/06/07 00:50:08;;;;;;;;;;;;;;;;;;6076315;23;19928;-79
2023/06/07 00:52:38;;;;;;;;;;;;;;;;;;6112216;23;19921;-79
2023/06/07 00:55:10;;;;;;;;;;;;;;;;;;6122918;23;19925;-79
2023/06/07 00:57:40;;;;;;;;;;;;;;;;;;6074983;23;19921;-79
2023/06/07 01:00:13;;;;;;;;;;;;;;;;;;6075420;23;19932;-79
2023/06/07 01:02:46;;;;;;;;;;;;;;;;;;6074034;23;19932;-79
2023/06/07 01:05:20;;;;;;;;;;;;;;;;;;6109446;23;19921;-79
2023/06/07 01:07:52;;;;;;;;;;;;;;;;;;6134365;23;19921;-79
2023/06/07 01:10:19;;;;;;;;;;;;;;;;;;6098694;23;20231;-79
2023/06/07 01:12:49;;;;;;;;;;;;;;;;;;6107998;23;20250;-79
2023/06/07 01:15:21;;;;;;;;;;;;;;;;;;6074369;23;19922;-79
2023/06/07 01:17:48;;;;;;;;;;;;;;;;;;6099210;23;19928;-79
2023/06/07 01:20:23;;;;;;;;;;;;;;;;;;6075112;23;20270;-79
2023/06/07 01:22:52;;;;;;;;;;;;;;;;;;6108957;23;19944;-79
2023/06/07 01:25:22;;;;;;;;;;;;;;;;;;6096867;23;19928;-79
2023/06/07 01:27:50;;;;;;;;;;;;;;;;;;6074674;23;19921;-79
2023/06/07 01:30:17;;;;;;;;;;;;;;;;;;6075048;23;19921;-79
2023/06/07 01:32:46;;;;;;;;;;;;;;;;;;6074264;23;19921;-79
2023/06/07 01:35:17;;;;;;;;;;;;;;;;;;6073872;23;19921;-79
2023/06/07 01:37:46;;;;;;;;;;;;;;;;;;6074917;23;20389;-79
2023/06/07 01:40:17;;;;;;;;;;;;;;;;;;6097460;23;19921;-79
2023/06/07 01:42:45;;;;;;;;;;;;;;;;;;6074979;23;20346;-79
2023/06/07 01:45:17;;;;;;;;;;;;;;;;;;6074645;23;20263;-79
2023/06/07 01:47:46;;;;;;;;;;;;;;;;;;6133620;23;20227;-79
2023/06/07 01:50:20;;;;;;;;;;;;;;;;;;6097907;23;19921;-79
2023/06/07 01:52:49;;;;;;;;;;;;;;;;;;6074671;23;20380;-79
2023/06/07 01:55:18;;;;;;;;;;;;;;;;;;6073716;23;20346;-79
2023/06/07 01:57:52;;;;;;;;;;;;;;;;;;6070967;23;19928;-79
2023/06/07 02:00:23;;;;;;;;;;;;;;;;;;6073575;23;19920;-79
2023/06/07 02:02:54;;;;;;;;;;;;;;;;;;6097955;23;19921;-78
2023/06/07 02:05:23;;;;;;;;;;;;;;;;;;6074020;23;19921;-78
2023/06/07 02:07:53;;;;;;;;;;;;;;;;;;6096122;23;20319;-78
2023/06/07 02:10:23;;;;;;;;;;;;;;;;;;6073331;23;20334;-78
2023/06/07 02:12:55;;;;;;;;;;;;;;;;;;6131452;23;20346;-78
2023/06/07 02:15:24;;;;;;;;;;;;;;;;;;6074772;23;19921;-78
2023/06/07 02:18:01;;;;;;;;;;;;;;;;;;6108106;23;20338;-78
2023/06/07 02:20:29;;;;;;;;;;;;;;;;;;6099842;23;20285;-78
2023/06/07 02:22:57;;;;;;;;;;;;;;;;;;6074141;23;19921;-78
2023/06/07 02:25:26;;;;;;;;;;;;;;;;;;6074541;23;19921;-78
2023/06/07 02:27:55;;;;;;;;;;;;;;;;;;6073911;23;20222;-78
2023/06/07 02:30:22;;;;;;;;;;;;;;;;;;6075883;23;19928;-78
2023/06/07 02:32:49;;;;;;;;;;;;;;;;;;6099847;23;19925;-78
2023/06/07 02:35:18;;;;;;;;;;;;;;;;;;6075332;23;19921;-78
2023/06/07 02:37:47;;;;;;;;;;;;;;;;;;6075426;23;20231;-78
2023/06/07 02:40:19;;;;;;;;;;;;;;;;;;6098307;23;20380;-78
2023/06/07 02:42:46;;;;;;;;;;;;;;;;;;6099098;23;20254;-78
2023/06/07 02:45:17;;;;;;;;;;;;;;;;;;6074233;23;20265;-78
2023/06/07 02:47:47;;;;;;;;;;;;;;;;;;6109006;23;19920;-78
2023/06/07 02:50:16;;;;;;;;;;;;;;;;;;6098412;23;19921;-78
2023/06/07 02:52:46;;;;;;;;;;;;;;;;;;6074368;23;19921;-78
2023/06/07 02:55:13;;;;;;;;;;;;;;;;;;6072975;23;19927;-78
2023/06/07 02:57:42;;;;;;;;;;;;;;;;;;6074168;23;19936;-78
2023/06/07 03:00:11;;;;;;;;;;;;;;;;;;6072493;23;20253;-79
2023/06/07 03:02:54;;;;;;;;;;;;;;;;;;6073743;23;19928;-79
2023/06/07 03:05:26;;;;;;;;;;;;;;;;;;6106436;23;20373;-79
2023/06/07 03:08:00;;;;;;;;;;;;;;;;;;6108360;23;19928;-79
2023/06/07 03:10:28;;;;;;;;;;;;;;;;;;6073289;23;19928;-79
2023/06/07 03:12:57;;;;;;;;;;;;;;;;;;6074522;23;19921;-79
2023/06/07 03:15:25;;;;;;;;;;;;;;;;;;6073788;23;20257;-78
2023/06/07 03:17:56;;;;;;;;;;;;;;;;;;6099035;23;20258;-78
2023/06/07 03:20:24;;;;;;;;;;;;;;;;;;6097755;23;19925;-78
2023/06/07 03:22:57;;;;;;;;;;;;;;;;;;6107724;23;19925;-78
2023/06/07 03:25:24;;;;;;;;;;;;;;;;;;6073565;23;19932;-78
2023/06/07 03:27:52;;;;;;;;;;;;;;;;;;6073646;23;19927;-78
2023/06/07 03:30:30;;;;;;;;;;;;;;;;;;6051602;23;19921;-78
2023/06/07 03:33:03;;;;;;;;;;;;;;;;;;6107924;23;20257;-78
2023/06/07 03:35:33;;;;;;;;;;;;;;;;;;6073229;23;19921;-78
2023/06/07 03:38:03;;;;;;;;;;;;;;;;;;6073779;23;19921;-79
2023/06/07 03:40:32;;;;;;;;;;;;;;;;;;6074940;23;19974;-79
2023/06/07 03:43:01;;;;;;;;;;;;;;;;;;6075993;23;19921;-79
2023/06/07 03:45:29;;;;;;;;;;;;;;;;;;6072563;23;19925;-79
2023/06/07 03:48:04;;;;;;;;;;;;;;;;;;6098015;23;20365;-79
2023/06/07 03:50:34;;;;;;;;;;;;;;;;;;6074178;23;19921;-79
2023/06/07 03:53:04;;;;;;;;;;;;;;;;;;6077816;23;19924;-80
2023/06/07 03:55:41;;;;;;;;;;;;;;;;;;6112145;23;19925;-80
2023/06/07 03:58:12;;;;;;;;;;;;;;;;;;6077112;23;19921;-80
2023/06/07 04:00:41;;;;;;;;;;;;;;;;;;6076739;23;19921;-79
2023/06/07 04:03:10;;;;;;;;;;;;;;;;;;6078061;23;19928;-79
2023/06/07 04:05:38;;;;;;;;;;;;;;;;;;6078328;23;20161;-79
2023/06/07 04:08:10;;;;;;;;;;;;;;;;;;6099741;23;19925;-79
2023/06/07 04:10:40;;;;;;;;;;;;;;;;;;6077115;23;19925;-79
2023/06/07 04:13:08;;;;;;;;;;;;;;;;;;6073742;23;19921;-79
2023/06/07 04:15:35;;;;;;;;;;;;;;;;;;6075182;23;19925;-79
2023/06/07 04:18:05;;;;;;;;;;;;;;;;;;6099629;23;19943;-79
2023/06/07 04:20:35;;;;;;;;;;;;;;;;;;6075829;23;19925;-79
2023/06/07 04:23:05;;;;;;;;;;;;;;;;;;6111535;23;20122;-79
2023/06/07 04:25:33;;;;;;;;;;;;;;;;;;6074903;23;19928;-79
2023/06/07 04:28:05;;;;;;;;;;;;;;;;;;6099266;23;19929;-79
2023/06/07 04:30:42;;;;;;;;;;;;;;;;;;6124132;23;19932;-79
2023/06/07 04:33:10;;;;;;;;;;;;;;;;;;6110605;23;19928;-79
2023/06/07 04:35:42;;;;;;;;;;;;;;;;;;6123813;23;19921;-79
2023/06/07 04:38:15;;;;;;;;;;;;;;;;;;6110660;23;20251;-79
2023/06/07 04:40:49;;;;;;;;;;;;;;;;;;6099836;23;19928;-79
2023/06/07 04:43:19;;;;;;;;;;;;;;;;;;6076984;23;19932;-79
2023/06/07 04:45:54;;;;;;;;;;;;;;;;;;6078461;23;19927;-79
2023/06/07 04:48:25;;;;;;;;;;;;;;;;;;6111490;23;19940;-80
2023/06/07 04:50:54;;;;;;;;;;;;;;;;;;6102950;23;19921;-80
2023/06/07 04:53:24;;;;;;;;;;;;;;;;;;6116921;23;19964;-81
2023/06/07 04:55:52;;;;;;;;;;;;;;;;;;6082866;23;19921;-81
2023/06/07 04:58:20;;;;;;;;;;;;;;;;;;6107316;23;19921;-81
2023/06/07 05:00:51;;;;;;;;;;;;;;;;;;6105330;23;19925;-81
2023/06/07 05:03:21;;;;;;;;;;;;;;;;;;6107083;23;19928;-81
2023/06/07 05:05:51;;;;;;;;;;;;;;;;;;6083128;23;19921;-80
2023/06/07 05:08:20;;;;;;;;;;;;;;;;;;6079349;23;19944;-80
2023/06/07 05:10:47;;;;;;;;;;;;;;;;;;6076729;23;19925;-80
2023/06/07 05:13:16;;;;;;;;;;;;;;;;;;6077132;23;19921;-80
2023/06/07 05:15:45;;;;;;;;;;;;;;;;;;6076911;23;19925;-80
2023/06/07 05:18:19;;;;;;;;;;;;;;;;;;6074033;23;19925;-79
2023/06/07 05:20:49;;;;;;;;;;;;;;;;;;6099673;23;20350;-79
2023/06/07 05:23:20;;;;;;;;;;;;;;;;;;6074671;23;20346;-79
2023/06/07 05:25:51;;;;;;;;;;;;;;;;;;6109337;23;19927;-79
2023/06/07 05:28:20;;;;;;;;;;;;;;;;;;6123537;23;19921;-79
2023/06/07 05:30:50;;;;;;;;;;;;;;;;;;6074745;23;19921;-79
2023/06/07 05:33:21;;;;;;;;;;;;;;;;;;6074569;23;20338;-79
2023/06/07 05:35:48;;;;;;;;;;;;;;;;;;6075697;23;19921;-79
2023/06/07 05:38:17;;;;;;;;;;;;;;;;;;6099966;23;19925;-79
2023/06/07 05:40:45;;;;;;;;;;;;;;;;;;6099339;23;20361;-79
2023/06/07 05:43:12;;;;;;;;;;;;;;;;;;6075451;23;20235;-79
2023/06/07 05:45:41;;;;;;;;;;;;;;;;;;6075459;23;20317;-79
2023/06/07 05:48:08;;;;;;;;;;;;;;;;;;6098266;23;20350;-79
2023/06/07 05:50:38;;;;;;;;;;;;;;;;;;6101756;23;19921;-79
2023/06/07 05:53:09;;;;;;;;;;;;;;;;;;6076176;23;19932;-79
2023/06/07 05:55:37;;;;;;;;;;;;;;;;;;6125911;23;20342;-79
2023/06/07 05:58:05;;;;;;;;;;;;;;;;;;6108347;23;19932;-79
2023/06/07 06:00:34;;;;;;;;;;;;;;;;;;6122234;23;19925;-79
2023/06/07 06:03:01;;;;;;;;;;;;;;;;;;6075592;23;19932;-79
2023/06/07 06:05:28;;;;;;;;;;;;;;;;;;6098694;23;19928;-79
2023/06/07 06:07:55;;;;;;;;;;;;;;;;;;6099089;23;19948;-79
2023/06/07 06:10:25;;;;;;;;;;;;;;;;;;6124578;23;19925;-79
2023/06/07 06:12:55;;;;;;;;;;;;;;;;;;6100150;23;19925;-79
2023/06/07 06:15:24;;;;;;;;;;;;;;;;;;6125390;23;20250;-79
2023/06/07 06:17:54;;;;;;;;;;;;;;;;;;6127327;23;20341;-79
2023/06/07 06:20:21;;;;;;;;;;;;;;;;;;6125561;23;19921;-79
2023/06/07 06:22:48;;;;;;;;;;;;;;;;;;6101110;23;19940;-80
2023/06/07 06:25:15;;;;;;;;;;;;;;;;;;6099676;23;19920;-80
2023/06/07 06:27:44;;;;;;;;;;;;;;;;;;6100859;23;19924;-80
2023/06/07 06:30:12;;;;;;;;;;;;;;;;;;6074532;23;19932;-80
2023/06/07 06:32:42;;;;;;;;;;;;;;;;;;6099035;23;19920;-80
2023/06/07 06:35:09;;;;;;;;;;;;;;;;;;6076592;23;19925;-80
2023/06/07 06:37:38;;;;;;;;;;;;;;;;;;6078638;23;19925;-80
2023/06/07 06:40:07;;;;;;;;;;;;;;;;;;6077142;23;19927;-80
2023/06/07 06:42:34;;;;;;;;;;;;;;;;;;6081910;23;19928;-81
2023/06/07 06:45:32;;;;;;;;;;;;;;;;;;6121707;23;20261;-81
2023/06/07 06:48:01;;;;;;;;;;;;;;;;;;6108099;23;19925;-81
2023/06/07 06:50:29;;;;;;;;;;;;;;;;;;6083061;23;19929;-81
2023/06/07 06:52:56;;;;;;;;;;;;;;;;;;6082167;23;19927;-81
2023/06/07 06:55:23;;;;;;;;;;;;;;;;;;6083839;23;20249;-82
2023/06/07 06:57:54;;;;;;;;;;;;;;;;;;6142705;23;19925;-81
2023/06/07 07:00:24;;;;;;;;;;;;;;;;;;6107510;23;19925;-81
2023/06/07 07:02:53;;;;;;;;;;;;;;;;;;6130961;23;19929;-81
2023/06/07 07:05:22;;;;;;;;;;;;;;;;;;6083889;23;19928;-81
2023/06/07 07:07:51;;;;;;;;;;;;;;;;;;6084829;23;20262;-81
2023/06/07 07:10:22;;;;;;;;;;;;;;;;;;6084427;23;19931;-81
2023/06/07 07:12:51;;;;;;;;;;;;;;;;;;6106967;23;19920;-81
2023/06/07 07:15:18;;;;;;;;;;;;;;;;;;6107967;23;19925;-80
2023/06/07 07:17:46;;;;;;;;;;;;;;;;;;6108078;23;19937;-81
2023/06/07 07:20:16;;;;;;;;;;;;;;;;;;6084099;23;19921;-81
2023/06/07 07:22:47;;;;;;;;;;;;;;;;;;6084194;23;19924;-81
2023/06/07 07:25:19;;;;;;;;;;;;;;;;;;6106530;23;19925;-81
2023/06/07 07:27:46;;;;;;;;;;;;;;;;;;6081159;23;20281;-80
2023/06/07 07:30:15;;;;;;;;;;;;;;;;;;6102835;23;20322;-80
2023/06/07 07:32:45;;;;;;;;;;;;;;;;;;6103061;23;19925;-80
2023/06/07 07:35:15;;;;;;;;;;;;;;;;;;6076794;23;19927;-81
2023/06/07 07:37:42;;;;;;;;;;;;;;;;;;6103826;23;19921;-81
2023/06/07 07:40:13;;;;;;;;;;;;;;;;;;6107433;23;19921;-81
2023/06/07 07:42:45;;;;;;;;;;;;;;;;;;6083910;23;19921;-81
2023/06/07 07:45:15;;;;;;;;;;;;;;;;;;6081854;23;19925;-82
2023/06/07 07:47:42;;;;;;;;;;;;;;;;;;6082950;23;19927;-82
2023/06/07 07:50:09;;;;;;;;;;;;;;;;;;6083674;23;19927;-82
2023/06/07 07:52:36;;;;;;;;;;;;;;;;;;6106527;23;20345;-82
2023/06/07 07:55:09;;;;;;;;;;;;;;;;;;6081879;23;20256;-82
2023/06/07 07:57:37;;;;;;;;;;;;;;;;;;6081548;23;20262;-82
2023/06/07 08:00:10;;;;;;;;;;;;;;;;;;6083360;23;19944;-82
2023/06/07 08:02:40;;;;;;;;;;;;;;;;;;6107524;23;19925;-82
2023/06/07 08:05:12;;;;;;;;;;;;;;;;;;6106347;23;19951;-82
2023/06/07 08:07:40;;;;;;;;;;;;;;;;;;6078289;23;19925;-81
2023/06/07 08:10:08;;;;;;;;;;;;;;;;;;6078803;23;20363;-81
2023/06/07 08:12:38;;;;;;;;;;;;;;;;;;6103126;23;19921;-81
2023/06/07 08:15:06;;;;;;;;;;;;;;;;;;6078389;23;19925;-80
2023/06/07 08:17:37;;;;;;;;;;;;;;;;;;6111821;23;19921;-80
2023/06/07 08:20:05;;;;;;;;;;;;;;;;;;6078083;23;19925;-80
2023/06/07 08:22:35;;;;;;;;;;;;;;;;;;6102614;23;20258;-80
2023/06/07 08:25:05;;;;;;;;;;;;;;;;;;6102911;23;20342;-80
2023/06/07 08:27:32;;;;;;;;;;;;;;;;;;6102740;23;19932;-80
2023/06/07 08:30:01;;;;;;;;;;;;;;;;;;6103526;23;19932;-80
2023/06/07 08:32:28;;;;;;;;;;;;;;;;;;6078961;23;19921;-80
2023/06/07 08:34:55;;;;;;;;;;;;;;;;;;6128206;23;19924;-80
2023/06/07 08:37:22;;;;;;;;;;;;;;;;;;6078398;23;19928;-80
2023/06/07 08:39:52;;;;;;;;;;;;;;;;;;6101262;23;19948;-80
2023/06/07 08:42:19;;;;;;;;;;;;;;;;;;6130734;23;19929;-81
2023/06/07 08:44:49;;;;;;;;;;;;;;;;;;6117862;23;19920;-92
2023/06/07 08:47:18;;;;;;;;;;;;;;;;;;6121723;23;19927;-93
2023/06/07 08:49:45;;;;;;;;;;;;;;;;;;6101658;23;19976;-92
2023/06/07 08:52:13;;;;;;;;;;;;;;;;;;6085180;23;19921;-92
2023/06/07 08:54:42;;;;;;;;;;;;;;;;;;6132666;23;19932;-92
2023/06/07 08:57:09;;;;;;;;;;;;;;;;;;6137923;23;19925;-93
2023/06/07 08:59:46;;;;;;;;;;;;;;;;;;6105077;23;19925;-91
2023/06/07 09:02:13;;;;;;;;;;;;;;;;;;6107329;23;19927;-92
2023/06/07 09:04:45;;;;;;;;;;;;;;;;;;6105031;23;19921;-92
2023/06/07 09:07:17;;;;;;;;;;;;;;;;;;6107434;23;20282;-92
2023/06/07 09:09:44;;;;;;;;;;;;;;;;;;6145248;23;19925;-92
2023/06/07 09:12:12;;;;;;;;;;;;;;;;;;6133985;23;19927;-93
2023/06/07 09:14:39;;;;;;;;;;;;;;;;;;6081013;23;19925;-92
2023/06/07 09:17:07;;;;;;;;;;;;;;;;;;6083886;23;19940;-92
2023/06/07 09:19:34;;;;;;;;;;;;;;;;;;6086397;23;20283;-92
2023/06/07 09:22:04;;;;;;;;;;;;;;;;;;6109297;23;19932;-92
2023/06/07 09:24:34;;;;;;;;;;;;;;;;;;6117417;23;19921;-93
2023/06/07 09:27:02;;;;;;;;;;;;;;;;;;6142733;23;19921;-92
2023/06/07 09:29:32;;;;;;;;;;;;;;;;;;6112800;23;19912;-92
2023/06/07 09:32:12;;;;;;;;;;;;;;;;;;6136131;23;19931;-92
2023/06/07 09:34:39;;;;;;;;;;;;;;;;;;6144534;23;19925;-92
2023/06/07 09:37:07;;;;;;;;;;;;;;;;;;6104938;23;19925;-92
2023/06/07 09:39:37;;;;;;;;;;;;;;;;;;6109012;23;19925;-93
2023/06/07 09:42:14;;;;;;;;;;;;;;;;;;6108171;23;19911;-93
2023/06/07 09:44:41;;;;;;;;;;;;;;;;;;6100325;23;20629;-93
2023/06/07 09:47:08;;;;;;;;;;;;;;;;;;6085850;23;19921;-93
2023/06/07 09:49:37;;;;;;;;;;;;;;;;;;6121232;23;19928;-93
2023/06/07 09:52:13;;;;;;;;;;;;;;;;;;6093561;23;19925;-93
2023/06/07 09:54:43;;;;;;;;;;;;;;;;;;6121997;23;19920;-92
2023/06/07 09:57:12;;;;;;;;;;;;;;;;;;6091530;23;19927;-93
2023/06/07 09:59:40;;;;;;;;;;;;;;;;;;6127750;23;19957;-93
2023/06/07 10:02:24;;;;;;;;;;;;;;;;;;6152100;23;19974;-93
2023/06/07 10:04:52;;;;;;;;;;;;;;;;;;6113209;23;19927;-92
2023/06/07 10:07:22;;;;;;;;;;;;;;;;;;6083836;23;19928;-93
2023/06/07 10:09:52;;;;;;;;;;;;;;;;;;6082627;23;19933;-92
2023/06/07 10:12:19;;;;;;;;;;;;;;;;;;6102154;23;19932;-92
2023/06/07 10:14:46;;;;;;;;;;;;;;;;;;6139556;23;19931;-92
2023/06/07 10:17:14;;;;;;;;;;;;;;;;;;6087125;23;19927;-93
2023/06/07 10:19:42;;;;;;;;;;;;;;;;;;6087386;23;19921;-92
2023/06/07 10:22:14;;;;;;;;;;;;;;;;;;6089877;23;19927;-92
2023/06/07 10:24:51;;;;;;;;;;;;;;;;;;6083158;23;19921;-92
2023/06/07 10:27:19;;;;;;;;;;;;;;;;;;6110526;23;19924;-93
2023/06/07 10:29:47;;;;;;;;;;;;;;;;;;6083367;23;19927;-92
2023/06/07 10:32:16;;;;;;;;;;;;;;;;;;6106098;23;19921;-92
2023/06/07 10:34:43;;;;;;;;;;;;;;;;;;6108529;23;19925;-93
2023/06/07 10:37:12;;;;;;;;;;;;;;;;;;6107506;23;19921;-92
2023/06/07 10:39:39;;;;;;;;;;;;;;;;;;6084605;23;19921;-92
2023/06/07 10:42:08;;;;;;;;;;;;;;;;;;6112603;23;19921;-93
2023/06/07 10:44:35;;;;;;;;;;;;;;;;;;6106649;23;20512;-92
2023/06/07 10:47:21;;;;;;;;;;;;;;;;;;6113347;23;19935;-95
2023/06/07 10:49:49;;;;;;;;;;;;;;;;;;6081888;23;19921;-94
2023/06/07 10:52:18;;;;;;;;;;;;;;;;;;6108978;23;19925;-93
2023/06/07 10:54:48;;;;;;;;;;;;;;;;;;6092979;23;19925;-93
2023/06/07 10:57:22;;;;;;;;;;;;;;;;;;6121647;23;19905;-95
2023/06/07 10:59:50;;;;;;;;;;;;;;;;;;6101837;23;19945;-94
2023/06/07 11:02:22;;;;;;;;;;;;;;;;;;6126398;23;19948;-95
2023/06/07 11:04:51;;;;;;;;;;;;;;;;;;6152264;23;19992;-95
2023/06/07 11:07:18;;;;;;;;;;;;;;;;;;6102487;23;19965;-94
2023/06/07 11:09:46;;;;;;;;;;;;;;;;;;6123894;23;19947;-93
2023/06/07 11:12:34;;;;;;;;;;;;;;;;;;6122625;23;19919;-95
2023/06/07 11:15:24;;;;;;;;;;;;;;;;;;6125167;23;19910;-94
2023/06/07 11:17:53;;;;;;;;;;;;;;;;;;6126350;23;19960;-95
2023/06/07 11:20:45;;;;;;;;;;;;;;;;;;6150663;23;19949;-93
2023/06/07 11:23:21;;;;;;;;;;;;;;;;;;6078038;23;19931;-94
2023/06/07 11:25:49;;;;;;;;;;;;;;;;;;6122279;23;19931;-94
2023/06/07 11:28:16;;;;;;;;;;;;;;;;;;6122356;23;19925;-94
2023/06/07 11:30:46;;;;;;;;;;;;;;;;;;6100822;23;19905;-94
2023/06/07 11:33:16;;;;;;;;;;;;;;;;;;6148328;23;19932;-95
2023/06/07 11:35:43;;;;;;;;;;;;;;;;;;6150512;23;19952;-94
2023/06/07 11:38:16;;;;;;;;;;;;;;;;;;6123079;23;19919;-94
2023/06/07 11:40:43;;;;;;;;;;;;;;;;;;6124776;23;19925;-94
2023/06/07 11:43:13;;;;;;;;;;;;;;;;;;6152062;23;19944;-94
2023/06/07 11:45:46;;;;;;;;;;;;;;;;;;6102028;23;19949;-95
2023/06/07 11:48:25;;;;;;;;;;;;;;;;;;6123169;23;19925;-94
2023/06/07 11:50:53;;;;;;;;;;;;;;;;;;6134857;23;19908;-94
2023/06/07 11:53:28;;;;;;;;;;;;;;;;;;6127753;23;19952;-93
2023/06/07 11:55:58;;;;;;;;;;;;;;;;;;6137802;23;19920;-94
2023/06/07 11:58:27;;;;;;;;;;;;;;;;;;6153417;23;19949;-94
2023/06/07 12:00:56;;;;;;;;;;;;;;;;;;6152310;23;20244;-94
2023/06/07 12:06:08;;;;;;;;;;;;;;;;;;6126146;23;19952;-95
2023/06/07 12:08:38;;;;;;;;;;;;;;;;;;6124673;23;19929;-93
2023/06/07 12:11:06;;;;;;;;;;;;;;;;;;6102512;23;19950;-94
2023/06/07 12:13:35;;;;;;;;;;;;;;;;;;6128207;23;19909;-96
2023/06/07 12:16:07;;;;;;;;;;;;;;;;;;6128335;23;19915;-93
2023/06/07 12:18:35;;;;;;;;;;;;;;;;;;6093728;23;19949;-94
2023/06/07 12:21:02;;;;;;;;;;;;;;;;;;6126538;23;19927;-92
2023/06/07 12:23:30;;;;;;;;;;;;;;;;;;6101389;23;19969;-92
2023/06/07 12:26:05;;;;;;;;;;;;;;;;;;6147007;23;19921;-93
2023/06/07 12:28:33;;;;;;;;;;;;;;;;;;6104814;23;19925;-93
2023/06/07 12:31:00;;;;;;;;;;;;;;;;;;6088336;23;19921;-93
2023/06/07 12:33:29;;;;;;;;;;;;;;;;;;6116128;23;19928;-93
2023/06/07 12:35:57;;;;;;;;;;;;;;;;;;6120399;23;19921;-93
2023/06/07 12:38:28;;;;;;;;;;;;;;;;;;6131437;23;19927;-94
2023/06/07 12:40:55;;;;;;;;;;;;;;;;;;6123038;23;19909;-94
2023/06/07 12:43:24;;;;;;;;;;;;;;;;;;6100267;23;19960;-94
2023/06/07 12:45:56;;;;;;;;;;;;;;;;;;6110757;23;19920;-93
2023/06/07 12:48:23;;;;;;;;;;;;;;;;;;6131031;23;20526;-93
2023/06/07 12:50:54;;;;;;;;;;;;;;;;;;6105693;23;20340;-93
2023/06/07 12:53:30;;;;;;;;;;;;;;;;;;6113888;23;19925;-94
2023/06/07 12:55:58;;;;;;;;;;;;;;;;;;6136737;23;19928;-94
2023/06/07 12:58:28;;;;;;;;;;;;;;;;;;6110015;23;20364;-93
2023/06/07 13:00:55;;;;;;;;;;;;;;;;;;6108931;23;19921;-93
2023/06/07 13:03:23;;;;;;;;;;;;;;;;;;6117145;23;19921;-94
2023/06/07 13:05:54;;;;;;;;;;;;;;;;;;6116846;23;19921;-94
2023/06/07 13:08:25;;;;;;;;;;;;;;;;;;6115255;23;19921;-94
2023/06/07 13:10:52;;;;;;;;;;;;;;;;;;6153024;23;19925;-93
2023/06/07 13:13:22;;;;;;;;;;;;;;;;;;6096405;23;19921;-94
2023/06/07 13:15:49;;;;;;;;;;;;;;;;;;6091238;23;19905;-93
2023/06/07 13:18:19;;;;;;;;;;;;;;;;;;6113772;23;20669;-94
2023/06/07 13:20:53;;;;;;;;;;;;;;;;;;6095421;23;19921;-93
2023/06/07 13:23:27;;;;;;;;;;;;;;;;;;6126074;23;19931;-93
2023/06/07 13:25:55;;;;;;;;;;;;;;;;;;6098716;23;19909;-93
2023/06/07 13:28:22;;;;;;;;;;;;;;;;;;6095898;23;19925;-95
2023/06/07 13:30:52;;;;;;;;;;;;;;;;;;6114225;23;19925;-94
2023/06/07 13:33:24;;;;;;;;;;;;;;;;;;6109265;23;19921;-94
2023/06/07 13:35:52;;;;;;;;;;;;;;;;;;6094974;23;19921;-94
2023/06/07 13:38:19;;;;;;;;;;;;;;;;;;6089570;23;19924;-93
2023/06/07 13:40:47;;;;;;;;;;;;;;;;;;6108842;23;20263;-94
2023/06/07 13:43:15;;;;;;;;;;;;;;;;;;6139183;23;19927;-93
2023/06/07 13:45:45;;;;;;;;;;;;;;;;;;6120073;23;20327;-93
2023/06/07 13:48:16;;;;;;;;;;;;;;;;;;6093991;23;19921;-94
2023/06/07 13:50:48;;;;;;;;;;;;;;;;;;6102360;23;19962;-93
2023/06/07 13:53:17;;;;;;;;;;;;;;;;;;6133349;23;19931;-94
2023/06/07 13:55:44;;;;;;;;;;;;;;;;;;6126629;23;19919;-95
2023/06/07 13:58:13;;;;;;;;;;;;;;;;;;6152355;23;19970;-93
2023/06/07 14:00:42;;;;;;;;;;;;;;;;;;6161137;23;19909;-94
2023/06/07 14:03:09;;;;;;;;;;;;;;;;;;6126443;23;19957;-95
2023/06/07 14:05:37;;;;;;;;;;;;;;;;;;6127451;23;19964;-93
2023/06/07 14:08:04;;;;;;;;;;;;;;;;;;6125734;23;19932;-93
2023/06/07 14:10:36;;;;;;;;;;;;;;;;;;6099595;23;19921;-93
2023/06/07 14:13:06;;;;;;;;;;;;;;;;;;6157883;23;19921;-93
2023/06/07 14:15:36;;;;;;;;;;;;;;;;;;6143817;23;20348;-93
2023/06/07 14:18:03;;;;;;;;;;;;;;;;;;6090522;23;19920;-93
2023/06/07 14:20:30;;;;;;;;;;;;;;;;;;6123592;23;19935;-93
2023/06/07 14:23:00;;;;;;;;;;;;;;;;;;6151344;23;19948;-93
2023/06/07 14:25:27;;;;;;;;;;;;;;;;;;6150998;23;19949;-93
2023/06/07 14:27:55;;;;;;;;;;;;;;;;;;6143192;23;19931;-92
2023/06/07 14:30:22;;;;;;;;;;;;;;;;;;6119565;23;19953;-94
2023/06/07 14:32:50;;;;;;;;;;;;;;;;;;6123652;23;19921;-93
2023/06/07 14:35:17;;;;;;;;;;;;;;;;;;6124056;23;19915;-93
2023/06/07 14:37:45;;;;;;;;;;;;;;;;;;6124496;23;19921;-93
2023/06/07 14:40:12;;;;;;;;;;;;;;;;;;6150878;23;19919;-93
2023/06/07 14:42:40;;;;;;;;;;;;;;;;;;6123740;23;19925;-93
2023/06/07 14:45:09;;;;;;;;;;;;;;;;;;6151060;23;19980;-93
2023/06/07 14:47:36;;;;;;;;;;;;;;;;;;6125179;23;19909;-93
2023/06/07 14:50:07;;;;;;;;;;;;;;;;;;6148938;23;19921;-93
2023/06/07 14:52:35;;;;;;;;;;;;;;;;;;6100569;23;19992;-93
2023/06/07 14:55:02;;;;;;;;;;;;;;;;;;6149149;23;19927;-93
2023/06/07 14:57:29;;;;;;;;;;;;;;;;;;6122254;23;19929;-93
2023/06/07 15:00:02;;;;;;;;;;;;;;;;;;6149857;23;19916;-94
2023/06/07 15:02:30;;;;;;;;;;;;;;;;;;6160584;23;19904;-94
2023/06/07 15:05:02;;;;;;;;;;;;;;;;;;6136761;23;19965;-93
2023/06/07 15:07:31;;;;;;;;;;;;;;;;;;6123536;23;19921;-94
2023/06/07 15:09:58;;;;;;;;;;;;;;;;;;6126117;23;19931;-94
2023/06/07 15:12:25;;;;;;;;;;;;;;;;;;6098312;23;19921;-94
2023/06/07 15:14:52;;;;;;;;;;;;;;;;;;6121756;23;19929;-92
2023/06/07 15:17:19;;;;;;;;;;;;;;;;;;6122168;23;19928;-94
2023/06/07 15:19:47;;;;;;;;;;;;;;;;;;6134341;23;19905;-94
2023/06/07 15:22:17;;;;;;;;;;;;;;;;;;6101031;23;19953;-93
2023/06/07 15:24:46;;;;;;;;;;;;;;;;;;6125476;23;19969;-94
2023/06/07 15:27:13;;;;;;;;;;;;;;;;;;6150299;23;19940;-94
2023/06/07 15:29:40;;;;;;;;;;;;;;;;;;6124096;23;19925;-94
2023/06/07 15:32:08;;;;;;;;;;;;;;;;;;6146518;23;19969;-93
2023/06/07 15:34:35;;;;;;;;;;;;;;;;;;6150310;23;19949;-94
2023/06/07 15:37:05;;;;;;;;;;;;;;;;;;6099495;23;19925;-95
2023/06/07 15:39:33;;;;;;;;;;;;;;;;;;6125141;23;19984;-94
2023/06/07 15:42:01;;;;;;;;;;;;;;;;;;6100307;23;19961;-94
2023/06/07 15:44:28;;;;;;;;;;;;;;;;;;6090304;23;19921;-94
2023/06/07 15:46:56;;;;;;;;;;;;;;;;;;6111209;23;20412;-94
2023/06/07 15:49:24;;;;;;;;;;;;;;;;;;6092999;23;19940;-95
2023/06/07 15:51:52;;;;;;;;;;;;;;;;;;6120407;23;19921;-95
2023/06/07 15:54:19;;;;;;;;;;;;;;;;;;6094215;23;19921;-93
2023/06/07 15:56:50;;;;;;;;;;;;;;;;;;6115003;23;19932;-94
2023/06/07 15:59:18;;;;;;;;;;;;;;;;;;6148510;23;19921;-94
2023/06/07 16:01:46;;;;;;;;;;;;;;;;;;6123349;23;19905;-94
2023/06/07 16:04:15;;;;;;;;;;;;;;;;;;6121507;23;19921;-94
2023/06/07 16:06:43;;;;;;;;;;;;;;;;;;6148170;23;19921;-93
2023/06/07 16:09:10;;;;;;;;;;;;;;;;;;6125034;23;19929;-94
2023/06/07 16:11:38;;;;;;;;;;;;;;;;;;6151617;23;19944;-94
2023/06/07 16:14:06;;;;;;;;;;;;;;;;;;6101721;23;19916;-95
2023/06/07 16:16:37;;;;;;;;;;;;;;;;;;6098430;23;22175;-95
2023/06/07 16:19:09;;;;;;;;;;;;;;;;;;6134626;23;19921;-94
2023/06/07 16:21:37;;;;;;;;;;;;;;;;;;6123897;23;19915;-94
2023/06/07 16:24:07;;;;;;;;;;;;;;;;;;6134016;23;19921;-95
2023/06/07 16:26:34;;;;;;;;;;;;;;;;;;6124610;23;19999;-94
2023/06/07 16:29:04;;;;;;;;;;;;;;;;;;6149690;23;19909;-95
2023/06/07 16:31:31;;;;;;;;;;;;;;;;;;6126743;23;19960;-96
2023/06/07 16:34:00;;;;;;;;;;;;;;;;;;6151696;23;19945;-96
2023/06/07 16:36:29;;;;;;;;;;;;;;;;;;6124711;23;19925;-95
2023/06/07 16:38:56;;;;;;;;;;;;;;;;;;6126611;23;19905;-94
2023/06/07 16:41:25;;;;;;;;;;;;;;;;;;6127345;23;19915;-95
2023/06/07 16:43:52;;;;;;;;;;;;;;;;;;6127382;23;20007;-95
2023/06/07 16:46:22;;;;;;;;;;;;;;;;;;6102592;23;19974;-96
2023/06/07 16:48:52;;;;;;;;;;;;;;;;;;6153132;23;19956;-95
2023/06/07 16:51:21;;;;;;;;;;;;;;;;;;6104106;23;19948;-95
2023/06/07 16:53:48;;;;;;;;;;;;;;;;;;6128045;23;19949;-96
2023/06/07 16:56:18;;;;;;;;;;;;;;;;;;6103910;23;20267;-95
2023/06/07 16:58:48;;;;;;;;;;;;;;;;;;6104242;23;19949;-95
2023/06/07 17:01:15;;;;;;;;;;;;;;;;;;6128360;23;19976;-95
2023/06/07 17:03:42;;;;;;;;;;;;;;;;;;6128566;23;19949;-96